createdAt,value
2022-10-08T00:01:05.808Z,99013.81
2022-10-08T00:03:36.324Z,99013.97
2022-10-08T00:06:08.172Z,99015.09
2022-10-08T00:08:37.824Z,99001.13
2022-10-08T00:11:08.848Z,99005.47
2022-10-08T00:13:40.809Z,99009.63
2022-10-08T00:16:21.671Z,99011.88
2022-10-08T00:18:51.266Z,99011.72
2022-10-08T00:21:28.010Z,99011.72
2022-10-08T00:23:54.692Z,99015.72
2022-10-08T00:26:24.246Z,99018.16
2022-10-08T00:28:52.920Z,99011.72
2022-10-08T00:31:40.530Z,99004.00
2022-10-08T00:34:14.652Z,99003.22
2022-10-08T00:36:42.438Z,98995.81
2022-10-08T00:39:16.276Z,99000.78
2022-10-08T00:41:45.652Z,98995.34
2022-10-08T00:44:46.517Z,98988.13
2022-10-08T00:47:20.033Z,98988.44
2022-10-08T00:49:51.070Z,98989.41
2022-10-08T00:52:19.482Z,98995.03
2022-10-08T00:54:46.481Z,98993.25
2022-10-08T00:57:13.253Z,98987.47
2022-10-08T00:59:40.004Z,99001.75
2022-10-08T01:02:09.944Z,98993.56
2022-10-08T01:04:38.518Z,98992.59
2022-10-08T01:07:17.271Z,98994.69
2022-10-08T01:10:03.470Z,98997.41
2022-10-08T01:13:04.472Z,98994.69
2022-10-08T01:15:59.059Z,98993.25
2022-10-08T01:18:29.020Z,98988.78
2022-10-08T01:21:37.122Z,98985.88
2022-10-08T01:24:51.154Z,98991.47
2022-10-08T01:27:31.100Z,99001.28
2022-10-08T01:30:02.076Z,98997.59
2022-10-08T01:32:37.138Z,98997.91
2022-10-08T01:35:12.807Z,98996.00
2022-10-08T01:37:43.407Z,98989.56
2022-10-08T01:40:15.610Z,98979.78
2022-10-08T01:42:42.447Z,98978.66
2022-10-08T01:45:16.425Z,98981.53
2022-10-08T01:47:45.456Z,98972.56
2022-10-08T01:50:34.921Z,98969.66
2022-10-08T01:53:09.500Z,98979.13
2022-10-08T01:55:40.301Z,98975.91
2022-10-08T01:58:13.468Z,98974.94
2022-10-08T02:00:42.031Z,98969.50
2022-10-08T02:03:13.683Z,98971.88
2022-10-08T02:05:44.210Z,98973.34
2022-10-08T02:08:11.008Z,98967.56
2022-10-08T02:10:38.100Z,98960.50
2022-10-08T02:13:04.827Z,98963.88
2022-10-08T02:15:54.518Z,98973.34
2022-10-08T02:18:34.458Z,98972.38
2022-10-08T02:21:10.926Z,98976.06
2022-10-08T02:23:46.763Z,98978.00
2022-10-08T02:26:20.033Z,98976.88
2022-10-08T02:28:57.433Z,98991.50
2022-10-08T02:31:33.672Z,98986.81
2022-10-08T02:34:19.013Z,98985.56
2022-10-08T02:36:51.742Z,98986.81
2022-10-08T02:39:20.721Z,98979.44
2022-10-08T02:41:51.714Z,98985.38
2022-10-08T02:44:33.017Z,98999.34
2022-10-08T02:47:04.289Z,98991.81
2022-10-08T02:49:39.987Z,98998.22
2022-10-08T02:52:09.301Z,98998.22
2022-10-08T02:54:40.060Z,99004.81
2022-10-08T02:57:19.885Z,99009.94
2022-10-08T02:59:53.216Z,99001.59
2022-10-08T03:02:29.826Z,99001.91
2022-10-08T03:05:01.585Z,99012.03
2022-10-08T03:07:30.963Z,99003.50
2022-10-08T03:09:59.852Z,99005.94
2022-10-08T03:12:26.954Z,99007.34
2022-10-08T03:14:53.872Z,99011.38
2022-10-08T03:17:27.560Z,99015.25
2022-10-08T03:19:54.491Z,99018.28
2022-10-08T03:22:21.211Z,99015.25
2022-10-08T03:24:48.089Z,99019.25
2022-10-08T03:27:14.772Z,99016.84
2022-10-08T03:29:41.584Z,99013.97
2022-10-08T03:32:08.472Z,99014.91
2022-10-08T03:34:35.172Z,99025.69
2022-10-08T03:37:02.058Z,99021.22
2022-10-08T03:39:28.800Z,99026.03
2022-10-08T03:41:55.510Z,99024.44
2022-10-08T03:44:22.194Z,99033.22
2022-10-08T03:46:48.885Z,99030.50
2022-10-08T03:49:15.625Z,99033.88
2022-10-08T03:51:42.349Z,99033.41
2022-10-08T03:54:09.114Z,99039.69
2022-10-08T03:56:35.936Z,99041.78
2022-10-08T03:59:06.637Z,99047.22
2022-10-08T04:01:33.469Z,99048.19
2022-10-08T04:04:00.320Z,99048.19
2022-10-08T04:06:27.116Z,99050.59
2022-10-08T04:08:55.947Z,99054.94
2022-10-08T04:11:22.702Z,99055.44
2022-10-08T04:13:49.512Z,99058.63
2022-10-08T04:16:18.164Z,99061.84
2022-10-08T04:18:46.770Z,99068.91
2022-10-08T04:21:16.223Z,99063.16
2022-10-08T04:23:44.473Z,99059.97
2022-10-08T04:26:12.779Z,99052.56
2022-10-08T04:28:41.384Z,99059.78
2022-10-08T04:31:11.591Z,99062.81
2022-10-08T04:33:38.651Z,99054.81
2022-10-08T04:36:11.395Z,99064.91
2022-10-08T04:38:38.192Z,99065.72
2022-10-08T04:41:12.489Z,99069.72
2022-10-08T04:43:40.580Z,99068.28
2022-10-08T04:46:09.300Z,99071.03
2022-10-08T04:48:36.524Z,99072.16
2022-10-08T04:51:10.025Z,99072.47
2022-10-08T04:53:37.545Z,99078.06
2022-10-08T04:56:12.788Z,99070.69
2022-10-08T04:58:40.267Z,99065.69
2022-10-08T05:01:10.039Z,99070.84
2022-10-08T05:03:38.357Z,99077.44
2022-10-08T05:06:06.211Z,99077.13
2022-10-08T05:08:33.843Z,99073.25
2022-10-08T05:11:00.792Z,99077.28
2022-10-08T05:13:27.939Z,99086.59
2022-10-08T05:15:54.740Z,99091.56
2022-10-08T05:18:22.606Z,99089.00
2022-10-08T05:20:49.378Z,99087.72
2022-10-08T05:23:16.078Z,99088.03
2022-10-08T05:25:42.953Z,99088.84
2022-10-08T05:28:09.674Z,99089.97
2022-10-08T05:30:36.500Z,99082.44
2022-10-08T05:33:03.973Z,99087.09
2022-10-08T05:35:31.173Z,99093.22
2022-10-08T05:37:57.892Z,99091.44
2022-10-08T05:40:24.922Z,99098.50
2022-10-08T05:42:52.644Z,99099.63
2022-10-08T05:45:19.366Z,99102.84
2022-10-08T05:47:48.306Z,99107.34
2022-10-08T05:50:15.548Z,99102.53
2022-10-08T05:52:42.552Z,99111.69
2022-10-08T05:55:09.594Z,99107.16
2022-10-08T05:57:36.547Z,99113.13
2022-10-08T06:00:04.223Z,99112.00
2022-10-08T06:02:31.344Z,99103.50
2022-10-08T06:04:58.761Z,99110.56
2022-10-08T06:07:25.503Z,99112.81
2022-10-08T06:09:54.775Z,99115.69
2022-10-08T06:12:21.651Z,99123.06
2022-10-08T06:14:48.381Z,99128.06
2022-10-08T06:17:15.073Z,99134.50
2022-10-08T06:19:43.148Z,99137.88
2022-10-08T06:22:09.834Z,99136.25
2022-10-08T06:24:36.586Z,99144.28
2022-10-08T06:27:03.362Z,99143.66
2022-10-08T06:29:30.111Z,99149.91
2022-10-08T06:31:56.847Z,99154.88
2022-10-08T06:34:24.368Z,99148.00
2022-10-08T06:36:51.249Z,99155.69
2022-10-08T06:39:18.358Z,99161.81
2022-10-08T06:41:45.410Z,99159.72
2022-10-08T06:44:13.999Z,99170.00
2022-10-08T06:47:02.782Z,99173.69
2022-10-08T06:49:29.601Z,99173.06
2022-10-08T06:51:56.410Z,99170.66
2022-10-08T06:54:26.036Z,99173.69
2022-10-08T06:56:52.697Z,99180.31
2022-10-08T06:59:19.341Z,99186.91
2022-10-08T07:01:46.104Z,99184.81
2022-10-08T07:04:12.925Z,99186.72
2022-10-08T07:06:39.618Z,99194.94
2022-10-08T07:09:07.574Z,99198.16
2022-10-08T07:11:35.152Z,99199.75
2022-10-08T07:14:02.118Z,99193.16
2022-10-08T07:16:29.548Z,99203.78
2022-10-08T07:18:58.382Z,99203.13
2022-10-08T07:21:26.369Z,99200.06
2022-10-08T07:23:53.136Z,99213.09
2022-10-08T07:26:22.292Z,99214.88
2022-10-08T07:28:51.011Z,99230.00
2022-10-08T07:31:20.798Z,99223.41
2022-10-08T07:33:48.012Z,99223.25
2022-10-08T07:36:20.216Z,99228.53
2022-10-08T07:38:48.110Z,99231.75
2022-10-08T07:41:14.793Z,99231.28
2022-10-08T07:43:41.566Z,99234.81
2022-10-08T07:46:09.992Z,99232.69
2022-10-08T07:48:37.440Z,99245.59
2022-10-08T07:51:15.410Z,99245.41
2022-10-08T07:53:43.215Z,99233.84
2022-10-08T07:56:12.236Z,99246.59
2022-10-08T07:58:40.185Z,99243.34
2022-10-08T08:01:10.361Z,99244.47
2022-10-08T08:03:37.407Z,99237.66
2022-10-08T08:06:09.531Z,99243.59
2022-10-08T08:08:38.139Z,99238.88
2022-10-08T08:11:07.458Z,99250.13
2022-10-08T08:13:37.412Z,99254.09
2022-10-08T08:16:07.169Z,99255.81
2022-10-08T08:18:37.029Z,99255.91
2022-10-08T08:21:12.493Z,99258.00
2022-10-08T08:23:41.758Z,99266.69
2022-10-08T08:26:11.751Z,99268.47
2022-10-08T08:28:39.708Z,99264.84
2022-10-08T08:31:12.019Z,99260.56
2022-10-08T08:33:39.076Z,99272.88
2022-10-08T08:36:07.161Z,99269.44
2022-10-08T08:38:35.578Z,99260.06
2022-10-08T08:41:37.481Z,99268.59
2022-10-08T08:44:18.469Z,99265.44
2022-10-08T08:46:55.034Z,99275.94
2022-10-08T08:49:34.658Z,99272.88
2022-10-08T08:52:03.423Z,99275.06
2022-10-08T08:54:30.397Z,99276.53
2022-10-08T08:57:22.547Z,99277.28
2022-10-08T08:59:53.193Z,99286.94
2022-10-08T09:02:32.597Z,99280.63
2022-10-08T09:05:03.395Z,99283.41
2022-10-08T09:07:41.988Z,99281.50
2022-10-08T09:10:15.681Z,99288.81
2022-10-08T09:12:43.756Z,99300.41
2022-10-08T09:15:20.392Z,99288.34
2022-10-08T09:17:51.689Z,99299.22
2022-10-08T09:20:22.741Z,99300.28
2022-10-08T09:22:51.608Z,99285.63
2022-10-08T09:25:22.705Z,99297.19
2022-10-08T09:27:54.666Z,99312.78
2022-10-08T09:30:24.409Z,99303.97
2022-10-08T09:32:53.530Z,99301.66
2022-10-08T09:35:20.388Z,99303.97
2022-10-08T09:37:48.908Z,99306.72
2022-10-08T09:40:21.561Z,99306.34
2022-10-08T09:43:17.152Z,99311.81
2022-10-08T09:45:46.626Z,99314.91
2022-10-08T09:48:19.225Z,99312.91
2022-10-08T09:51:05.970Z,99309.91
2022-10-08T09:53:41.256Z,99309.19
2022-10-08T09:56:09.730Z,99306.91
2022-10-08T09:59:00.929Z,99316.78
2022-10-08T10:01:31.160Z,99316.34
2022-10-08T10:04:02.625Z,99329.41
2022-10-08T10:06:43.605Z,99320.19
2022-10-08T10:09:34.306Z,99321.59
2022-10-08T10:12:09.460Z,99317.44
2022-10-08T10:14:48.966Z,99333.47
2022-10-08T10:17:43.447Z,99330.13
2022-10-08T10:20:20.723Z,99330.22
2022-10-08T10:22:56.256Z,99329.88
2022-10-08T10:25:44.421Z,99328.44
2022-10-08T10:28:18.574Z,99326.94
2022-10-08T10:31:04.486Z,99336.09
2022-10-08T10:33:47.566Z,99326.19
2022-10-08T10:36:17.577Z,99319.25
2022-10-08T10:38:51.916Z,99324.25
2022-10-08T10:41:30.407Z,99328.44
2022-10-08T10:44:03.731Z,99328.63
2022-10-08T10:46:53.003Z,99331.78
2022-10-08T10:49:26.969Z,99325.53
2022-10-08T10:52:05.981Z,99325.44
2022-10-08T10:54:57.607Z,99324.53
2022-10-08T10:57:52.254Z,99322.97
2022-10-08T11:00:29.367Z,99320.25
2022-10-08T11:03:47.726Z,99321.72
2022-10-08T11:06:41.799Z,99327.91
2022-10-08T11:09:23.649Z,99328.06
2022-10-08T11:11:59.745Z,99319.19
2022-10-08T11:14:38.564Z,99318.16
2022-10-08T11:17:11.912Z,99330.06
2022-10-08T11:19:41.742Z,99324.13
2022-10-08T11:22:14.475Z,99320.97
2022-10-08T11:24:58.606Z,99324.31
2022-10-08T11:27:42.445Z,99321.41
2022-10-08T11:30:14.277Z,99324.41
2022-10-08T11:32:51.717Z,99324.00
2022-10-08T11:35:32.768Z,99326.22
2022-10-08T11:38:11.881Z,99323.41
2022-10-08T11:40:51.827Z,99317.56
2022-10-08T11:43:27.475Z,99333.66
2022-10-08T11:46:13.065Z,99329.09
2022-10-08T11:48:40.038Z,99328.59
2022-10-08T11:51:18.955Z,99321.69
2022-10-08T11:54:06.795Z,99311.94
2022-10-08T11:56:40.822Z,99308.38
2022-10-08T11:59:32.437Z,99318.06
2022-10-08T12:02:19.555Z,99314.31
2022-10-08T12:04:48.769Z,99319.63
2022-10-08T12:07:15.493Z,99317.53
2022-10-08T12:10:07.520Z,99313.78
2022-10-08T12:12:49.868Z,99315.22
2022-10-08T12:15:22.824Z,99312.72
2022-10-08T12:18:26.623Z,99319.50
2022-10-08T12:21:21.664Z,99322.16
2022-10-08T12:23:48.417Z,99317.56
2022-10-08T12:26:16.522Z,99316.69
2022-10-08T12:28:43.230Z,99313.47
2022-10-08T12:31:17.645Z,99317.25
2022-10-08T12:33:59.281Z,99312.41
2022-10-08T12:36:58.632Z,99308.50
2022-10-08T12:39:40.207Z,99311.97
2022-10-08T12:42:30.347Z,99313.28
2022-10-08T12:45:16.186Z,99316.28
2022-10-08T12:47:49.864Z,99310.50
2022-10-08T12:50:26.210Z,99307.03
2022-10-08T12:52:53.585Z,99314.97
2022-10-08T12:55:23.164Z,99308.47
2022-10-08T12:57:53.489Z,99317.69
2022-10-08T13:00:29.047Z,99317.91
2022-10-08T13:03:16.588Z,99312.81
2022-10-08T13:05:43.881Z,99318.94
2022-10-08T13:08:28.121Z,99309.59
2022-10-08T13:10:56.226Z,99305.38
2022-10-08T13:13:38.121Z,99314.16
2022-10-08T13:16:08.778Z,99300.84
2022-10-08T13:18:37.619Z,99310.53
2022-10-08T13:21:08.034Z,99314.75
2022-10-08T13:23:47.280Z,99311.06
2022-10-08T13:26:47.162Z,99312.72
2022-10-08T13:29:20.948Z,99320.75
2022-10-08T13:32:13.178Z,99306.00
2022-10-08T13:34:42.377Z,99312.66
2022-10-08T13:37:21.494Z,99307.53
2022-10-08T13:40:04.496Z,99312.28
2022-10-08T13:42:34.402Z,99319.78
2022-10-08T13:45:04.135Z,99302.03
2022-10-08T13:47:35.297Z,99300.03
2022-10-08T13:50:02.366Z,99300.81
2022-10-08T13:52:33.468Z,99305.09
2022-10-08T13:55:03.819Z,99294.44
2022-10-08T13:57:30.662Z,99300.41
2022-10-08T14:00:01.213Z,99293.25
2022-10-08T14:02:28.041Z,99299.97
2022-10-08T14:04:54.842Z,99293.97
2022-10-08T14:07:29.577Z,99284.16
2022-10-08T14:09:59.586Z,99286.69
2022-10-08T14:12:30.897Z,99283.13
2022-10-08T14:14:58.633Z,99288.44
2022-10-08T14:17:25.546Z,99286.97
2022-10-08T14:19:54.242Z,99285.25
2022-10-08T14:22:24.309Z,99298.78
2022-10-08T14:24:51.908Z,99295.81
2022-10-08T14:27:47.245Z,99292.88
2022-10-08T14:30:15.547Z,99292.16
2022-10-08T14:32:42.680Z,99287.13
2022-10-08T14:35:10.580Z,99296.78
2022-10-08T14:37:37.951Z,99302.72
2022-10-08T14:40:06.741Z,99295.41
2022-10-08T14:42:33.537Z,99290.06
2022-10-08T14:45:01.332Z,99291.78
2022-10-08T14:47:28.232Z,99287.22
2022-10-08T14:49:55.089Z,99293.19
2022-10-08T14:52:21.879Z,99294.66
2022-10-08T14:54:48.671Z,99290.66
2022-10-08T14:57:15.618Z,99291.94
2022-10-08T14:59:42.543Z,99294.91
2022-10-08T15:02:11.180Z,99291.13
2022-10-08T15:04:38.596Z,99291.34
2022-10-08T15:07:08.839Z,99295.47
2022-10-08T15:10:00.628Z,99298.06
2022-10-08T15:12:27.293Z,99298.66
2022-10-08T15:14:53.949Z,99293.38
2022-10-08T15:17:20.665Z,99296.81
2022-10-08T15:19:48.922Z,99300.13
2022-10-08T15:22:16.010Z,99299.53
2022-10-08T15:24:42.702Z,99294.25
2022-10-08T15:27:09.361Z,99300.88
2022-10-08T15:29:36.607Z,99303.84
2022-10-08T15:32:03.358Z,99307.28
2022-10-08T15:34:30.240Z,99310.22
2022-10-08T15:36:57.147Z,99309.31
2022-10-08T15:39:24.340Z,99313.88
2022-10-08T15:41:52.992Z,99317.97
2022-10-08T15:44:29.014Z,99311.34
2022-10-08T15:47:05.918Z,99311.81
2022-10-08T15:49:33.993Z,99323.47
2022-10-08T15:52:01.349Z,99321.03
2022-10-08T15:54:28.054Z,99317.63
2022-10-08T15:56:54.815Z,99329.06
2022-10-08T15:59:21.870Z,99329.28
2022-10-08T16:01:49.596Z,99322.53
2022-10-08T16:04:16.483Z,99327.22
2022-10-08T16:06:46.427Z,99336.59
2022-10-08T16:09:15.246Z,99329.91
2022-10-08T16:11:42.750Z,99328.81
2022-10-08T16:14:15.442Z,99338.72
2022-10-08T16:16:43.230Z,99342.13
2022-10-08T16:19:20.082Z,99333.63
2022-10-08T16:21:49.102Z,99332.69
2022-10-08T16:24:17.314Z,99339.63
2022-10-08T16:26:45.863Z,99340.44
2022-10-08T16:29:16.177Z,99351.13
2022-10-08T16:31:44.860Z,99349.06
2022-10-08T16:34:17.960Z,99352.66
2022-10-08T16:36:48.607Z,99350.88
2022-10-08T16:39:18.241Z,99357.03
2022-10-08T16:41:45.725Z,99346.16
2022-10-08T16:44:14.951Z,99360.38
2022-10-08T16:46:45.193Z,99362.88
2022-10-08T16:49:21.115Z,99367.53
2022-10-08T16:51:55.935Z,99373.50
2022-10-08T16:54:23.061Z,99372.25
2022-10-08T16:56:49.926Z,99374.03
2022-10-08T16:59:20.143Z,99373.84
2022-10-08T17:01:50.075Z,99382.41
2022-10-08T17:04:18.829Z,99388.53
2022-10-08T17:06:47.745Z,99389.31
2022-10-08T17:09:15.800Z,99388.13
2022-10-08T17:11:42.973Z,99391.00
2022-10-08T17:14:15.456Z,99396.63
2022-10-08T17:16:43.451Z,99401.75
2022-10-08T17:19:12.150Z,99403.06
2022-10-08T17:21:39.265Z,99410.94
2022-10-08T17:24:06.647Z,99418.81
2022-10-08T17:26:33.805Z,99413.34
2022-10-08T17:29:09.485Z,99419.75
2022-10-08T17:31:37.090Z,99421.84
2022-10-08T17:34:04.187Z,99424.13
2022-10-08T17:36:36.119Z,99432.13
2022-10-08T17:39:05.902Z,99428.28
2022-10-08T17:41:35.897Z,99442.91
2022-10-08T17:44:06.306Z,99441.25
2022-10-08T17:46:37.156Z,99447.78
2022-10-08T17:49:04.520Z,99450.09
2022-10-08T17:51:31.530Z,99449.59
2022-10-08T17:54:01.293Z,99451.56
2022-10-08T17:56:29.018Z,99463.13
2022-10-08T17:58:56.203Z,99467.66
2022-10-08T18:01:26.140Z,99467.78
2022-10-08T18:04:01.963Z,99467.88
2022-10-08T18:06:30.579Z,99479.53
2022-10-08T18:09:00.041Z,99480.97
2022-10-08T18:11:28.873Z,99484.63
2022-10-08T18:13:55.974Z,99482.09
2022-10-08T18:16:26.952Z,99484.22
2022-10-08T18:18:54.385Z,99488.59
2022-10-08T18:21:22.086Z,99491.16
2022-10-08T18:23:49.476Z,99489.47
2022-10-08T18:26:18.415Z,99492.69
2022-10-08T18:28:47.627Z,99496.19
2022-10-08T18:31:15.536Z,99485.66
2022-10-08T18:33:44.613Z,99494.28
2022-10-08T18:36:21.492Z,99497.41
2022-10-08T18:38:53.535Z,99505.22
2022-10-08T18:41:28.034Z,99510.50
2022-10-08T18:43:59.105Z,99511.19
2022-10-08T18:46:27.164Z,99507.13
2022-10-08T18:48:54.926Z,99505.94
2022-10-08T18:51:24.306Z,99516.16
2022-10-08T18:53:52.470Z,99522.34
2022-10-08T18:56:28.312Z,99521.94
2022-10-08T18:58:56.570Z,99515.19
2022-10-08T19:01:31.399Z,99524.56
2022-10-08T19:04:00.166Z,99528.78
2022-10-08T19:06:30.670Z,99532.56
2022-10-08T19:08:58.679Z,99536.41
2022-10-08T19:11:32.953Z,99535.91
2022-10-08T19:14:00.937Z,99528.13
2022-10-08T19:16:29.584Z,99534.31
2022-10-08T19:19:04.848Z,99538.53
2022-10-08T19:21:34.035Z,99538.81
2022-10-08T19:24:01.881Z,99544.66
2022-10-08T19:26:30.571Z,99543.56
2022-10-08T19:28:58.321Z,99549.53
2022-10-08T19:31:28.040Z,99547.41
2022-10-08T19:34:01.985Z,99550.56
2022-10-08T19:36:30.927Z,99546.00
2022-10-08T19:39:00.303Z,99551.50
2022-10-08T19:41:28.218Z,99553.00
2022-10-08T19:43:57.060Z,99552.72
2022-10-08T19:46:25.637Z,99553.31
2022-10-08T19:48:54.929Z,99558.38
2022-10-08T19:51:22.208Z,99565.94
2022-10-08T19:53:49.751Z,99577.56
2022-10-08T19:56:17.496Z,99576.53
2022-10-08T19:58:48.455Z,99572.09
2022-10-08T20:01:18.410Z,99576.03
2022-10-08T20:03:45.461Z,99577.75
2022-10-08T20:06:23.283Z,99580.97
2022-10-08T20:08:58.912Z,99580.47
2022-10-08T20:11:26.786Z,99587.13
2022-10-08T20:13:54.490Z,99582.66
2022-10-08T20:16:30.051Z,99583.72
2022-10-08T20:19:05.477Z,99585.53
2022-10-08T20:21:35.470Z,99596.09
2022-10-08T20:24:03.049Z,99585.19
2022-10-08T20:26:32.058Z,99591.28
2022-10-08T20:29:04.653Z,99592.16
2022-10-08T20:31:43.160Z,99595.84
2022-10-08T20:34:13.148Z,99595.84
2022-10-08T20:36:40.204Z,99601.97
2022-10-08T20:39:07.341Z,99597.13
2022-10-08T20:41:34.276Z,99598.47
2022-10-08T20:44:03.140Z,99600.44
2022-10-08T20:46:31.808Z,99598.22
2022-10-08T20:48:58.816Z,99598.97
2022-10-08T20:51:26.801Z,99597.94
2022-10-08T20:53:56.125Z,99599.06
2022-10-08T20:56:24.068Z,99602.22
2022-10-08T20:58:51.213Z,99607.97
2022-10-08T21:01:32.247Z,99603.25
2022-10-08T21:04:00.527Z,99605.03
2022-10-08T21:06:30.368Z,99597.16
2022-10-08T21:08:59.006Z,99591.56
2022-10-08T21:11:28.732Z,99590.97
2022-10-08T21:13:57.217Z,99602.69
2022-10-08T21:16:26.244Z,99595.81
2022-10-08T21:18:59.652Z,99608.34
2022-10-08T21:21:27.523Z,99597.31
2022-10-08T21:23:54.353Z,99606.28
2022-10-08T21:26:23.801Z,99603.88
2022-10-08T21:28:52.854Z,99605.03
2022-10-08T21:31:20.468Z,99604.09
2022-10-08T21:33:49.196Z,99610.53
2022-10-08T21:36:18.326Z,99610.53
2022-10-08T21:38:45.709Z,99609.91
2022-10-08T21:41:14.595Z,99609.13
2022-10-08T21:43:46.105Z,99603.38
2022-10-08T21:46:15.622Z,99607.19
2022-10-08T21:48:43.045Z,99620.06
2022-10-08T21:51:13.867Z,99616.81
2022-10-08T21:53:45.560Z,99619.47
2022-10-08T21:56:14.719Z,99616.97
2022-10-08T21:58:44.344Z,99621.38
2022-10-08T22:01:23.102Z,99617.91
2022-10-08T22:04:00.818Z,99620.13
2022-10-08T22:06:29.889Z,99615.78
2022-10-08T22:08:57.414Z,99616.34
2022-10-08T22:11:24.364Z,99615.31
2022-10-08T22:13:51.457Z,99611.03
2022-10-08T22:16:20.081Z,99609.50
2022-10-08T22:18:47.130Z,99611.16
2022-10-08T22:21:20.119Z,99613.91
2022-10-08T22:23:47.483Z,99612.88
2022-10-08T22:26:17.194Z,99607.44
2022-10-08T22:28:44.765Z,99609.41
2022-10-08T22:31:14.143Z,99602.13
2022-10-08T22:33:41.517Z,99599.66
2022-10-08T22:36:11.910Z,99608.66
2022-10-08T22:38:41.017Z,99604.25
2022-10-08T22:41:22.099Z,99604.66
2022-10-08T22:43:49.364Z,99603.31
2022-10-08T22:46:31.886Z,99599.34
2022-10-08T22:49:01.069Z,99598.59
2022-10-08T22:51:29.100Z,99607.31
2022-10-08T22:53:56.220Z,99595.09
2022-10-08T22:56:27.026Z,99595.31
2022-10-08T22:58:57.964Z,99597.47
2022-10-08T23:01:26.146Z,99599.94
2022-10-08T23:03:53.355Z,99601.56
2022-10-08T23:06:28.687Z,99601.38
2022-10-08T23:08:57.795Z,99600.03
2022-10-08T23:11:25.565Z,99601.19
2022-10-08T23:13:54.510Z,99601.97
2022-10-08T23:16:22.472Z,99607.44
2022-10-08T23:19:01.285Z,99616.69
2022-10-08T23:21:29.489Z,99607.97
2022-10-08T23:23:57.074Z,99602.28
2022-10-08T23:26:24.988Z,99603.06
2022-10-08T23:28:54.003Z,99596.84
2022-10-08T23:31:23.944Z,99610.16
2022-10-08T23:33:52.571Z,99608.81
2022-10-08T23:36:25.456Z,99603.16
2022-10-08T23:38:52.860Z,99606.91
2022-10-08T23:41:20.012Z,99603.41
2022-10-08T23:43:48.598Z,99604.84
2022-10-08T23:46:17.745Z,99610.81
2022-10-08T23:48:45.037Z,99608.94
2022-10-08T23:51:13.316Z,99601.44
2022-10-08T23:53:41.094Z,99598.16
2022-10-08T23:56:08.637Z,99602.81
2022-10-08T23:58:35.907Z,99597.69
